sensor_id;sensor_type;location;lat;lon;timestamp;P1;durP1;ratioP1;P2;durP2;ratioP2
56413;SDS011;42318;48.452;19.526;2023-10-09T00:01:17;1.30;;;0.90;;
56413;SDS011;42318;48.452;19.526;2023-10-09T00:04:21;3.08;;;1.20;;
56413;SDS011;42318;48.452;19.526;2023-10-09T00:07:23;2.38;;;1.05;;
56413;SDS011;42318;48.452;19.526;2023-10-09T00:10:30;2.72;;;0.88;;
56413;SDS011;42318;48.452;19.526;2023-10-09T00:13:46;2.50;;;0.88;;
56413;SDS011;42318;48.452;19.526;2023-10-09T00:16:57;2.33;;;1.00;;
56413;SDS011;42318;48.452;19.526;2023-10-09T00:20:13;3.47;;;1.20;;
56413;SDS011;42318;48.452;19.526;2023-10-09T00:23:21;2.70;;;1.02;;
56413;SDS011;42318;48.452;19.526;2023-10-09T00:26:26;2.97;;;1.05;;
56413;SDS011;42318;48.452;19.526;2023-10-09T00:29:26;2.10;;;0.95;;
56413;SDS011;42318;48.452;19.526;2023-10-09T00:32:34;3.15;;;1.15;;
56413;SDS011;42318;48.452;19.526;2023-10-09T00:35:37;2.03;;;1.00;;
56413;SDS011;42318;48.452;19.526;2023-10-09T00:38:44;2.40;;;1.00;;
56413;SDS011;42318;48.452;19.526;2023-10-09T00:41:52;2.75;;;1.02;;
56413;SDS011;42318;48.452;19.526;2023-10-09T00:44:54;1.92;;;0.90;;
56413;SDS011;42318;48.452;19.526;2023-10-09T00:48:03;2.80;;;1.20;;
56413;SDS011;42318;48.452;19.526;2023-10-09T00:51:06;2.35;;;0.90;;
56413;SDS011;42318;48.452;19.526;2023-10-09T00:54:17;2.17;;;0.90;;
56413;SDS011;42318;48.452;19.526;2023-10-09T00:57:20;2.72;;;1.13;;
56413;SDS011;42318;48.452;19.526;2023-10-09T01:00:24;2.42;;;0.93;;
56413;SDS011;42318;48.452;19.526;2023-10-09T01:03:44;1.77;;;1.00;;
56413;SDS011;42318;48.452;19.526;2023-10-09T01:06:45;3.45;;;1.27;;
56413;SDS011;42318;48.452;19.526;2023-10-09T01:10:06;1.98;;;0.88;;
56413;SDS011;42318;48.452;19.526;2023-10-09T01:13:10;2.00;;;0.90;;
56413;SDS011;42318;48.452;19.526;2023-10-09T01:16:10;1.75;;;0.88;;
56413;SDS011;42318;48.452;19.526;2023-10-09T01:19:13;2.17;;;0.85;;
56413;SDS011;42318;48.452;19.526;2023-10-09T01:22:20;3.47;;;0.93;;
56413;SDS011;42318;48.452;19.526;2023-10-09T01:25:22;1.60;;;0.70;;
56413;SDS011;42318;48.452;19.526;2023-10-09T01:28:23;1.88;;;0.90;;
56413;SDS011;42318;48.452;19.526;2023-10-09T01:31:24;1.52;;;0.90;;
56413;SDS011;42318;48.452;19.526;2023-10-09T01:34:30;2.00;;;0.60;;
56413;SDS011;42318;48.452;19.526;2023-10-09T01:37:38;2.55;;;0.90;;
56413;SDS011;42318;48.452;19.526;2023-10-09T01:40:38;2.15;;;0.70;;
56413;SDS011;42318;48.452;19.526;2023-10-09T01:43:39;3.42;;;1.08;;
56413;SDS011;42318;48.452;19.526;2023-10-09T01:46:45;3.58;;;0.73;;
56413;SDS011;42318;48.452;19.526;2023-10-09T01:49:48;2.08;;;1.02;;
56413;SDS011;42318;48.452;19.526;2023-10-09T01:52:50;1.65;;;0.85;;
56413;SDS011;42318;48.452;19.526;2023-10-09T01:55:53;2.65;;;0.80;;
56413;SDS011;42318;48.452;19.526;2023-10-09T01:58:55;1.27;;;0.73;;
56413;SDS011;42318;48.452;19.526;2023-10-09T02:02:02;2.65;;;1.00;;
56413;SDS011;42318;48.452;19.526;2023-10-09T02:05:12;2.83;;;1.00;;
56413;SDS011;42318;48.452;19.526;2023-10-09T02:08:13;2.67;;;0.88;;
56413;SDS011;42318;48.452;19.526;2023-10-09T02:11:14;1.60;;;0.85;;
56413;SDS011;42318;48.452;19.526;2023-10-09T02:14:14;1.65;;;0.70;;
56413;SDS011;42318;48.452;19.526;2023-10-09T02:17:21;1.35;;;0.65;;
56413;SDS011;42318;48.452;19.526;2023-10-09T02:20:24;1.10;;;0.70;;
56413;SDS011;42318;48.452;19.526;2023-10-09T02:23:31;1.98;;;0.85;;
56413;SDS011;42318;48.452;19.526;2023-10-09T02:26:49;1.58;;;0.90;;
56413;SDS011;42318;48.452;19.526;2023-10-09T02:29:52;1.77;;;0.70;;
56413;SDS011;42318;48.452;19.526;2023-10-09T02:32:53;1.58;;;0.73;;
56413;SDS011;42318;48.452;19.526;2023-10-09T02:35:59;3.85;;;0.93;;
56413;SDS011;42318;48.452;19.526;2023-10-09T02:39:05;1.95;;;0.90;;
56413;SDS011;42318;48.452;19.526;2023-10-09T02:42:06;1.85;;;1.02;;
56413;SDS011;42318;48.452;19.526;2023-10-09T02:45:12;1.40;;;0.60;;
56413;SDS011;42318;48.452;19.526;2023-10-09T02:48:17;1.02;;;0.65;;
56413;SDS011;42318;48.452;19.526;2023-10-09T02:51:28;1.77;;;0.80;;
56413;SDS011;42318;48.452;19.526;2023-10-09T02:54:28;1.05;;;0.60;;
56413;SDS011;42318;48.452;19.526;2023-10-09T02:57:35;1.08;;;0.68;;
56413;SDS011;42318;48.452;19.526;2023-10-09T03:00:37;2.42;;;1.00;;
56413;SDS011;42318;48.452;19.526;2023-10-09T03:03:38;1.65;;;0.60;;
56413;SDS011;42318;48.452;19.526;2023-10-09T03:06:38;1.55;;;0.77;;
56413;SDS011;42318;48.452;19.526;2023-10-09T03:09:43;1.38;;;0.70;;
56413;SDS011;42318;48.452;19.526;2023-10-09T03:12:44;2.30;;;0.90;;
56413;SDS011;42318;48.452;19.526;2023-10-09T03:15:45;0.95;;;0.52;;
56413;SDS011;42318;48.452;19.526;2023-10-09T03:18:49;1.27;;;0.80;;
56413;SDS011;42318;48.452;19.526;2023-10-09T03:21:51;2.35;;;0.85;;
56413;SDS011;42318;48.452;19.526;2023-10-09T03:24:51;1.33;;;0.80;;
56413;SDS011;42318;48.452;19.526;2023-10-09T03:27:53;1.15;;;0.68;;
56413;SDS011;42318;48.452;19.526;2023-10-09T03:30:56;1.25;;;0.70;;
56413;SDS011;42318;48.452;19.526;2023-10-09T03:33:59;1.33;;;0.70;;
56413;SDS011;42318;48.452;19.526;2023-10-09T03:37:00;1.25;;;0.70;;
56413;SDS011;42318;48.452;19.526;2023-10-09T03:40:20;1.25;;;0.60;;
56413;SDS011;42318;48.452;19.526;2023-10-09T03:43:22;1.83;;;0.93;;
56413;SDS011;42318;48.452;19.526;2023-10-09T03:46:23;1.75;;;0.80;;
56413;SDS011;42318;48.452;19.526;2023-10-09T03:49:33;1.13;;;0.73;;
56413;SDS011;42318;48.452;19.526;2023-10-09T03:52:33;1.17;;;0.70;;
56413;SDS011;42318;48.452;19.526;2023-10-09T03:55:35;1.05;;;0.60;;
56413;SDS011;42318;48.452;19.526;2023-10-09T03:58:38;2.08;;;0.90;;
56413;SDS011;42318;48.452;19.526;2023-10-09T04:01:40;1.65;;;0.70;;
56413;SDS011;42318;48.452;19.526;2023-10-09T04:04:41;3.75;;;0.93;;
56413;SDS011;42318;48.452;19.526;2023-10-09T04:07:47;2.17;;;0.77;;
56413;SDS011;42318;48.452;19.526;2023-10-09T04:10:49;1.42;;;0.77;;
56413;SDS011;42318;48.452;19.526;2023-10-09T04:13:52;2.55;;;0.82;;
56413;SDS011;42318;48.452;19.526;2023-10-09T04:16:53;2.05;;;0.68;;
56413;SDS011;42318;48.452;19.526;2023-10-09T04:20:29;2.20;;;0.65;;
56413;SDS011;42318;48.452;19.526;2023-10-09T04:23:33;2.15;;;0.70;;
56413;SDS011;42318;48.452;19.526;2023-10-09T04:26:56;0.93;;;0.70;;
56413;SDS011;42318;48.452;19.526;2023-10-09T04:29:57;2.70;;;0.70;;
56413;SDS011;42318;48.452;19.526;2023-10-09T04:33:01;1.37;;;0.70;;
56413;SDS011;42318;48.452;19.526;2023-10-09T04:36:11;1.85;;;0.73;;
56413;SDS011;42318;48.452;19.526;2023-10-09T04:39:21;1.50;;;0.75;;
56413;SDS011;42318;48.452;19.526;2023-10-09T04:42:41;3.65;;;0.90;;
56413;SDS011;42318;48.452;19.526;2023-10-09T04:45:58;2.13;;;0.85;;
56413;SDS011;42318;48.452;19.526;2023-10-09T04:49:23;1.35;;;0.60;;
56413;SDS011;42318;48.452;19.526;2023-10-09T04:55:28;1.63;;;0.90;;
56413;SDS011;42318;48.452;19.526;2023-10-09T04:58:38;3.03;;;1.00;;
56413;SDS011;42318;48.452;19.526;2023-10-09T05:01:39;1.60;;;0.65;;
56413;SDS011;42318;48.452;19.526;2023-10-09T05:04:57;2.30;;;0.65;;
56413;SDS011;42318;48.452;19.526;2023-10-09T05:08:36;2.03;;;0.65;;
56413;SDS011;42318;48.452;19.526;2023-10-09T05:11:46;1.70;;;0.70;;
56413;SDS011;42318;48.452;19.526;2023-10-09T05:14:52;1.02;;;0.63;;
56413;SDS011;42318;48.452;19.526;2023-10-09T05:18:09;1.98;;;0.90;;
56413;SDS011;42318;48.452;19.526;2023-10-09T05:21:09;1.38;;;0.70;;
56413;SDS011;42318;48.452;19.526;2023-10-09T05:24:13;0.77;;;0.47;;
56413;SDS011;42318;48.452;19.526;2023-10-09T05:27:13;1.55;;;0.75;;
56413;SDS011;42318;48.452;19.526;2023-10-09T05:30:24;1.00;;;0.50;;
56413;SDS011;42318;48.452;19.526;2023-10-09T05:33:25;0.98;;;0.50;;
56413;SDS011;42318;48.452;19.526;2023-10-09T05:36:28;1.02;;;0.52;;
56413;SDS011;42318;48.452;19.526;2023-10-09T05:39:29;1.88;;;0.70;;
56413;SDS011;42318;48.452;19.526;2023-10-09T05:42:42;2.92;;;0.60;;
56413;SDS011;42318;48.452;19.526;2023-10-09T05:45:43;1.23;;;0.70;;
56413;SDS011;42318;48.452;19.526;2023-10-09T05:49:02;1.48;;;0.88;;
56413;SDS011;42318;48.452;19.526;2023-10-09T05:52:20;0.85;;;0.50;;
56413;SDS011;42318;48.452;19.526;2023-10-09T05:55:40;2.00;;;0.70;;
56413;SDS011;42318;48.452;19.526;2023-10-09T05:58:59;1.23;;;0.60;;
56413;SDS011;42318;48.452;19.526;2023-10-09T06:02:12;1.73;;;0.90;;
56413;SDS011;42318;48.452;19.526;2023-10-09T06:05:30;1.10;;;0.70;;
56413;SDS011;42318;48.452;19.526;2023-10-09T06:09:02;0.70;;;0.50;;
56413;SDS011;42318;48.452;19.526;2023-10-09T06:12:15;2.78;;;0.95;;
56413;SDS011;42318;48.452;19.526;2023-10-09T06:15:49;1.48;;;0.68;;
56413;SDS011;42318;48.452;19.526;2023-10-09T06:18:50;3.33;;;1.08;;
56413;SDS011;42318;48.452;19.526;2023-10-09T06:22:08;2.05;;;0.80;;
56413;SDS011;42318;48.452;19.526;2023-10-09T06:25:12;1.65;;;0.70;;
56413;SDS011;42318;48.452;19.526;2023-10-09T06:28:18;4.75;;;0.70;;
56413;SDS011;42318;48.452;19.526;2023-10-09T06:31:19;1.85;;;0.65;;
56413;SDS011;42318;48.452;19.526;2023-10-09T06:34:47;1.10;;;0.57;;
56413;SDS011;42318;48.452;19.526;2023-10-09T06:37:52;0.70;;;0.50;;
56413;SDS011;42318;48.452;19.526;2023-10-09T06:41:02;0.60;;;0.50;;
56413;SDS011;42318;48.452;19.526;2023-10-09T06:44:05;1.92;;;0.98;;
56413;SDS011;42318;48.452;19.526;2023-10-09T06:47:06;1.65;;;0.70;;
56413;SDS011;42318;48.452;19.526;2023-10-09T06:53:21;1.98;;;0.80;;
56413;SDS011;42318;48.452;19.526;2023-10-09T06:56:26;1.00;;;0.83;;
56413;SDS011;42318;48.452;19.526;2023-10-09T06:59:31;0.45;;;0.40;;
56413;SDS011;42318;48.452;19.526;2023-10-09T07:02:43;1.88;;;0.80;;
56413;SDS011;42318;48.452;19.526;2023-10-09T07:05:47;1.88;;;1.15;;
56413;SDS011;42318;48.452;19.526;2023-10-09T07:09:09;3.63;;;0.85;;
56413;SDS011;42318;48.452;19.526;2023-10-09T07:12:11;1.90;;;0.68;;
56413;SDS011;42318;48.452;19.526;2023-10-09T07:15:20;2.05;;;0.73;;
56413;SDS011;42318;48.452;19.526;2023-10-09T07:18:40;1.23;;;0.60;;
56413;SDS011;42318;48.452;19.526;2023-10-09T07:21:49;1.77;;;0.77;;
56413;SDS011;42318;48.452;19.526;2023-10-09T07:24:55;0.85;;;0.60;;
56413;SDS011;42318;48.452;19.526;2023-10-09T07:27:56;1.20;;;0.55;;
56413;SDS011;42318;48.452;19.526;2023-10-09T07:31:00;2.38;;;0.80;;
56413;SDS011;42318;48.452;19.526;2023-10-09T07:34:00;1.67;;;0.82;;
56413;SDS011;42318;48.452;19.526;2023-10-09T07:37:07;4.65;;;1.00;;
56413;SDS011;42318;48.452;19.526;2023-10-09T07:40:07;2.60;;;0.73;;
56413;SDS011;42318;48.452;19.526;2023-10-09T07:43:09;1.67;;;0.70;;
56413;SDS011;42318;48.452;19.526;2023-10-09T07:46:17;1.95;;;0.95;;
56413;SDS011;42318;48.452;19.526;2023-10-09T07:49:32;1.52;;;0.98;;
56413;SDS011;42318;48.452;19.526;2023-10-09T07:52:33;1.75;;;1.05;;
56413;SDS011;42318;48.452;19.526;2023-10-09T07:55:34;0.70;;;0.50;;
56413;SDS011;42318;48.452;19.526;2023-10-09T07:58:40;0.90;;;0.63;;
56413;SDS011;42318;48.452;19.526;2023-10-09T08:01:47;2.22;;;1.00;;
56413;SDS011;42318;48.452;19.526;2023-10-09T08:04:59;1.38;;;0.90;;
56413;SDS011;42318;48.452;19.526;2023-10-09T08:08:05;1.83;;;0.98;;
56413;SDS011;42318;48.452;19.526;2023-10-09T08:11:38;1.33;;;0.73;;
56413;SDS011;42318;48.452;19.526;2023-10-09T08:15:14;1.83;;;0.98;;
56413;SDS011;42318;48.452;19.526;2023-10-09T08:18:21;1.60;;;0.90;;
56413;SDS011;42318;48.452;19.526;2023-10-09T08:21:32;1.60;;;0.88;;
56413;SDS011;42318;48.452;19.526;2023-10-09T08:25:04;1.95;;;0.88;;
56413;SDS011;42318;48.452;19.526;2023-10-09T08:28:05;1.65;;;0.90;;
56413;SDS011;42318;48.452;19.526;2023-10-09T08:31:16;1.70;;;0.90;;
56413;SDS011;42318;48.452;19.526;2023-10-09T08:34:45;1.92;;;1.15;;
56413;SDS011;42318;48.452;19.526;2023-10-09T08:37:49;1.80;;;1.00;;
56413;SDS011;42318;48.452;19.526;2023-10-09T08:40:50;2.83;;;1.27;;
56413;SDS011;42318;48.452;19.526;2023-10-09T08:43:58;1.40;;;0.80;;
56413;SDS011;42318;48.452;19.526;2023-10-09T08:47:00;2.20;;;1.00;;
56413;SDS011;42318;48.452;19.526;2023-10-09T08:50:00;0.90;;;0.75;;
56413;SDS011;42318;48.452;19.526;2023-10-09T08:53:02;3.42;;;1.27;;
56413;SDS011;42318;48.452;19.526;2023-10-09T08:56:03;1.52;;;0.93;;
56413;SDS011;42318;48.452;19.526;2023-10-09T08:59:04;1.80;;;0.98;;
56413;SDS011;42318;48.452;19.526;2023-10-09T09:02:05;3.25;;;0.98;;
56413;SDS011;42318;48.452;19.526;2023-10-09T09:05:16;1.95;;;1.00;;
56413;SDS011;42318;48.452;19.526;2023-10-09T09:08:24;2.10;;;0.80;;
56413;SDS011;42318;48.452;19.526;2023-10-09T09:11:26;1.95;;;0.88;;
56413;SDS011;42318;48.452;19.526;2023-10-09T09:14:37;2.83;;;1.00;;
56413;SDS011;42318;48.452;19.526;2023-10-09T09:17:38;2.53;;;0.93;;
56413;SDS011;42318;48.452;19.526;2023-10-09T09:20:41;1.52;;;1.00;;
56413;SDS011;42318;48.452;19.526;2023-10-09T09:23:53;2.40;;;1.27;;
56413;SDS011;42318;48.452;19.526;2023-10-09T09:27:01;2.70;;;1.10;;
56413;SDS011;42318;48.452;19.526;2023-10-09T09:33:35;2.58;;;1.08;;
56413;SDS011;42318;48.452;19.526;2023-10-09T09:36:55;2.70;;;1.00;;
56413;SDS011;42318;48.452;19.526;2023-10-09T09:39:57;1.95;;;0.95;;
56413;SDS011;42318;48.452;19.526;2023-10-09T09:43:01;3.73;;;1.03;;
56413;SDS011;42318;48.452;19.526;2023-10-09T09:46:06;2.05;;;1.00;;
56413;SDS011;42318;48.452;19.526;2023-10-09T09:49:08;2.40;;;1.15;;
56413;SDS011;42318;48.452;19.526;2023-10-09T09:52:16;2.88;;;1.40;;
56413;SDS011;42318;48.452;19.526;2023-10-09T09:55:18;1.65;;;0.90;;
56413;SDS011;42318;48.452;19.526;2023-10-09T09:58:23;2.97;;;1.17;;
56413;SDS011;42318;48.452;19.526;2023-10-09T10:01:28;5.00;;;1.02;;
56413;SDS011;42318;48.452;19.526;2023-10-09T10:04:32;1.55;;;0.93;;
56413;SDS011;42318;48.452;19.526;2023-10-09T10:07:35;4.77;;;1.30;;
56413;SDS011;42318;48.452;19.526;2023-10-09T10:10:43;1.92;;;0.95;;
56413;SDS011;42318;48.452;19.526;2023-10-09T10:13:54;1.83;;;0.90;;
56413;SDS011;42318;48.452;19.526;2023-10-09T10:17:01;2.53;;;1.00;;
56413;SDS011;42318;48.452;19.526;2023-10-09T10:20:06;4.63;;;1.20;;
56413;SDS011;42318;48.452;19.526;2023-10-09T10:23:19;3.55;;;1.30;;
56413;SDS011;42318;48.452;19.526;2023-10-09T10:26:21;3.53;;;1.63;;
56413;SDS011;42318;48.452;19.526;2023-10-09T10:29:30;3.28;;;1.10;;
56413;SDS011;42318;48.452;19.526;2023-10-09T10:35:54;2.85;;;1.20;;
56413;SDS011;42318;48.452;19.526;2023-10-09T10:39:02;2.33;;;1.40;;
56413;SDS011;42318;48.452;19.526;2023-10-09T10:42:05;3.15;;;1.20;;
56413;SDS011;42318;48.452;19.526;2023-10-09T10:45:06;2.53;;;1.27;;
56413;SDS011;42318;48.452;19.526;2023-10-09T10:48:26;2.35;;;1.27;;
56413;SDS011;42318;48.452;19.526;2023-10-09T10:51:38;3.92;;;1.27;;
56413;SDS011;42318;48.452;19.526;2023-10-09T10:54:38;2.22;;;1.17;;
56413;SDS011;42318;48.452;19.526;2023-10-09T10:57:39;1.83;;;1.30;;
56413;SDS011;42318;48.452;19.526;2023-10-09T11:00:58;1.92;;;1.15;;
56413;SDS011;42318;48.452;19.526;2023-10-09T11:03:59;2.38;;;1.40;;
56413;SDS011;42318;48.452;19.526;2023-10-09T11:07:00;2.00;;;1.15;;
56413;SDS011;42318;48.452;19.526;2023-10-09T11:10:10;3.08;;;1.83;;
56413;SDS011;42318;48.452;19.526;2023-10-09T11:16:36;2.42;;;1.05;;
56413;SDS011;42318;48.452;19.526;2023-10-09T11:19:42;3.08;;;1.48;;
56413;SDS011;42318;48.452;19.526;2023-10-09T11:22:44;2.70;;;1.48;;
56413;SDS011;42318;48.452;19.526;2023-10-09T11:26:05;4.25;;;1.23;;
56413;SDS011;42318;48.452;19.526;2023-10-09T11:29:26;4.07;;;1.48;;
56413;SDS011;42318;48.452;19.526;2023-10-09T11:32:26;3.38;;;1.55;;
56413;SDS011;42318;48.452;19.526;2023-10-09T11:35:32;1.95;;;1.10;;
56413;SDS011;42318;48.452;19.526;2023-10-09T11:38:36;3.22;;;1.38;;
56413;SDS011;42318;48.452;19.526;2023-10-09T11:41:39;5.40;;;1.50;;
56413;SDS011;42318;48.452;19.526;2023-10-09T11:44:44;3.38;;;1.20;;
56413;SDS011;42318;48.452;19.526;2023-10-09T11:47:48;4.95;;;1.25;;
56413;SDS011;42318;48.452;19.526;2023-10-09T11:50:59;3.08;;;1.42;;
56413;SDS011;42318;48.452;19.526;2023-10-09T11:54:03;3.35;;;1.77;;
56413;SDS011;42318;48.452;19.526;2023-10-09T11:57:04;2.90;;;1.08;;
56413;SDS011;42318;48.452;19.526;2023-10-09T12:00:04;2.20;;;1.23;;
56413;SDS011;42318;48.452;19.526;2023-10-09T12:03:28;2.70;;;1.52;;
56413;SDS011;42318;48.452;19.526;2023-10-09T12:06:30;3.47;;;1.20;;
56413;SDS011;42318;48.452;19.526;2023-10-09T12:09:32;4.10;;;1.67;;
56413;SDS011;42318;48.452;19.526;2023-10-09T12:12:34;2.55;;;1.40;;
56413;SDS011;42318;48.452;19.526;2023-10-09T12:15:35;2.28;;;1.20;;
56413;SDS011;42318;48.452;19.526;2023-10-09T12:18:38;2.78;;;1.05;;
56413;SDS011;42318;48.452;19.526;2023-10-09T12:21:39;4.03;;;1.67;;
56413;SDS011;42318;48.452;19.526;2023-10-09T12:24:43;4.73;;;1.50;;
56413;SDS011;42318;48.452;19.526;2023-10-09T12:27:43;3.15;;;1.50;;
56413;SDS011;42318;48.452;19.526;2023-10-09T12:30:44;1.90;;;1.33;;
56413;SDS011;42318;48.452;19.526;2023-10-09T12:33:50;2.78;;;1.60;;
56413;SDS011;42318;48.452;19.526;2023-10-09T12:36:54;2.35;;;1.30;;
56413;SDS011;42318;48.452;19.526;2023-10-09T12:39:55;4.22;;;1.80;;
56413;SDS011;42318;48.452;19.526;2023-10-09T12:42:57;3.30;;;1.40;;
56413;SDS011;42318;48.452;19.526;2023-10-09T12:46:04;2.65;;;1.33;;
56413;SDS011;42318;48.452;19.526;2023-10-09T12:49:06;2.00;;;1.23;;
56413;SDS011;42318;48.452;19.526;2023-10-09T12:52:07;1.25;;;0.85;;
56413;SDS011;42318;48.452;19.526;2023-10-09T12:55:15;2.40;;;1.00;;
56413;SDS011;42318;48.452;19.526;2023-10-09T12:58:19;3.13;;;1.50;;
56413;SDS011;42318;48.452;19.526;2023-10-09T13:01:21;2.83;;;1.60;;
56413;SDS011;42318;48.452;19.526;2023-10-09T13:04:22;3.92;;;1.20;;
56413;SDS011;42318;48.452;19.526;2023-10-09T13:07:23;3.30;;;1.35;;
56413;SDS011;42318;48.452;19.526;2023-10-09T13:10:23;3.35;;;1.30;;
56413;SDS011;42318;48.452;19.526;2023-10-09T13:13:28;4.13;;;1.40;;
56413;SDS011;42318;48.452;19.526;2023-10-09T13:16:41;2.00;;;1.08;;
56413;SDS011;42318;48.452;19.526;2023-10-09T13:19:42;3.88;;;1.20;;
56413;SDS011;42318;48.452;19.526;2023-10-09T13:22:44;4.28;;;1.58;;
56413;SDS011;42318;48.452;19.526;2023-10-09T13:25:49;2.67;;;1.70;;
56413;SDS011;42318;48.452;19.526;2023-10-09T13:28:50;3.00;;;1.40;;
56413;SDS011;42318;48.452;19.526;2023-10-09T13:31:55;2.42;;;1.08;;
56413;SDS011;42318;48.452;19.526;2023-10-09T13:35:02;4.15;;;1.50;;
56413;SDS011;42318;48.452;19.526;2023-10-09T13:38:04;3.08;;;1.38;;
56413;SDS011;42318;48.452;19.526;2023-10-09T13:41:10;3.17;;;1.38;;
56413;SDS011;42318;48.452;19.526;2023-10-09T13:44:18;2.63;;;1.02;;
56413;SDS011;42318;48.452;19.526;2023-10-09T13:47:18;2.28;;;1.10;;
56413;SDS011;42318;48.452;19.526;2023-10-09T13:50:19;2.97;;;1.15;;
56413;SDS011;42318;48.452;19.526;2023-10-09T13:53:22;4.00;;;1.10;;
56413;SDS011;42318;48.452;19.526;2023-10-09T13:56:24;2.53;;;1.40;;
56413;SDS011;42318;48.452;19.526;2023-10-09T13:59:27;2.80;;;1.42;;
56413;SDS011;42318;48.452;19.526;2023-10-09T14:02:28;3.83;;;1.20;;
56413;SDS011;42318;48.452;19.526;2023-10-09T14:05:28;1.95;;;1.10;;
56413;SDS011;42318;48.452;19.526;2023-10-09T14:08:29;3.47;;;1.45;;
56413;SDS011;42318;48.452;19.526;2023-10-09T14:11:30;4.28;;;1.40;;
56413;SDS011;42318;48.452;19.526;2023-10-09T14:14:38;3.10;;;1.30;;
56413;SDS011;42318;48.452;19.526;2023-10-09T14:17:49;2.10;;;1.25;;
56413;SDS011;42318;48.452;19.526;2023-10-09T14:20:56;1.95;;;1.17;;
56413;SDS011;42318;48.452;19.526;2023-10-09T14:23:57;2.88;;;1.45;;
56413;SDS011;42318;48.452;19.526;2023-10-09T14:26:58;3.08;;;1.60;;
56413;SDS011;42318;48.452;19.526;2023-10-09T14:29:59;3.13;;;1.40;;
56413;SDS011;42318;48.452;19.526;2023-10-09T14:33:01;2.53;;;1.30;;
56413;SDS011;42318;48.452;19.526;2023-10-09T14:36:03;2.78;;;1.10;;
56413;SDS011;42318;48.452;19.526;2023-10-09T14:39:06;2.63;;;1.27;;
56413;SDS011;42318;48.452;19.526;2023-10-09T14:42:07;2.38;;;1.17;;
56413;SDS011;42318;48.452;19.526;2023-10-09T14:45:11;1.60;;;1.15;;
56413;SDS011;42318;48.452;19.526;2023-10-09T14:48:16;3.17;;;1.50;;
56413;SDS011;42318;48.452;19.526;2023-10-09T14:51:26;2.63;;;1.25;;
56413;SDS011;42318;48.452;19.526;2023-10-09T14:54:28;3.28;;;1.50;;
56413;SDS011;42318;48.452;19.526;2023-10-09T14:57:29;2.35;;;1.15;;
56413;SDS011;42318;48.452;19.526;2023-10-09T15:03:34;4.72;;;1.50;;
56413;SDS011;42318;48.452;19.526;2023-10-09T15:06:37;2.22;;;1.10;;
56413;SDS011;42318;48.452;19.526;2023-10-09T15:09:38;3.63;;;1.15;;
56413;SDS011;42318;48.452;19.526;2023-10-09T15:12:41;2.03;;;1.30;;
56413;SDS011;42318;48.452;19.526;2023-10-09T15:15:49;1.92;;;0.95;;
56413;SDS011;42318;48.452;19.526;2023-10-09T15:18:51;2.22;;;1.02;;
56413;SDS011;42318;48.452;19.526;2023-10-09T15:21:53;2.15;;;1.17;;
56413;SDS011;42318;48.452;19.526;2023-10-09T15:24:53;4.30;;;1.65;;
56413;SDS011;42318;48.452;19.526;2023-10-09T15:27:54;2.75;;;1.27;;
56413;SDS011;42318;48.452;19.526;2023-10-09T15:30:56;1.90;;;1.00;;
56413;SDS011;42318;48.452;19.526;2023-10-09T15:33:57;1.48;;;1.02;;
56413;SDS011;42318;48.452;19.526;2023-10-09T15:36:57;3.33;;;1.30;;
56413;SDS011;42318;48.452;19.526;2023-10-09T15:39:58;2.72;;;1.30;;
56413;SDS011;42318;48.452;19.526;2023-10-09T15:43:04;3.08;;;1.20;;
56413;SDS011;42318;48.452;19.526;2023-10-09T15:46:10;1.80;;;1.20;;
56413;SDS011;42318;48.452;19.526;2023-10-09T15:49:14;2.85;;;2.00;;
56413;SDS011;42318;48.452;19.526;2023-10-09T15:52:15;2.75;;;1.10;;
56413;SDS011;42318;48.452;19.526;2023-10-09T15:55:16;1.65;;;1.08;;
56413;SDS011;42318;48.452;19.526;2023-10-09T15:58:21;2.70;;;1.25;;
56413;SDS011;42318;48.452;19.526;2023-10-09T16:01:21;1.83;;;1.15;;
56413;SDS011;42318;48.452;19.526;2023-10-09T16:04:22;2.55;;;1.27;;
56413;SDS011;42318;48.452;19.526;2023-10-09T16:07:24;3.88;;;1.60;;
56413;SDS011;42318;48.452;19.526;2023-10-09T16:10:27;3.00;;;1.23;;
56413;SDS011;42318;48.452;19.526;2023-10-09T16:13:27;2.55;;;1.30;;
56413;SDS011;42318;48.452;19.526;2023-10-09T16:16:29;2.33;;;1.35;;
56413;SDS011;42318;48.452;19.526;2023-10-09T16:19:30;2.45;;;1.30;;
56413;SDS011;42318;48.452;19.526;2023-10-09T16:22:33;2.70;;;1.40;;
56413;SDS011;42318;48.452;19.526;2023-10-09T16:25:33;3.55;;;1.17;;
56413;SDS011;42318;48.452;19.526;2023-10-09T16:28:34;2.70;;;1.40;;
56413;SDS011;42318;48.452;19.526;2023-10-09T16:31:36;2.70;;;1.13;;
56413;SDS011;42318;48.452;19.526;2023-10-09T16:34:37;3.25;;;1.27;;
56413;SDS011;42318;48.452;19.526;2023-10-09T16:37:39;2.38;;;1.10;;
56413;SDS011;42318;48.452;19.526;2023-10-09T16:40:41;2.10;;;1.23;;
56413;SDS011;42318;48.452;19.526;2023-10-09T16:43:47;2.85;;;1.50;;
56413;SDS011;42318;48.452;19.526;2023-10-09T16:46:47;1.92;;;1.50;;
56413;SDS011;42318;48.452;19.526;2023-10-09T16:49:48;3.95;;;1.30;;
56413;SDS011;42318;48.452;19.526;2023-10-09T16:52:51;2.30;;;1.10;;
56413;SDS011;42318;48.452;19.526;2023-10-09T16:55:52;3.55;;;1.10;;
56413;SDS011;42318;48.452;19.526;2023-10-09T17:01:57;2.60;;;1.48;;
56413;SDS011;42318;48.452;19.526;2023-10-09T17:04:58;2.40;;;1.05;;
56413;SDS011;42318;48.452;19.526;2023-10-09T17:07:59;3.70;;;1.45;;
56413;SDS011;42318;48.452;19.526;2023-10-09T17:11:00;2.78;;;1.25;;
56413;SDS011;42318;48.452;19.526;2023-10-09T17:14:03;1.65;;;1.00;;
56413;SDS011;42318;48.452;19.526;2023-10-09T17:17:06;1.63;;;1.00;;
56413;SDS011;42318;48.452;19.526;2023-10-09T17:20:08;2.90;;;1.20;;
56413;SDS011;42318;48.452;19.526;2023-10-09T17:23:11;1.70;;;1.02;;
56413;SDS011;42318;48.452;19.526;2023-10-09T17:26:11;2.22;;;1.02;;
56413;SDS011;42318;48.452;19.526;2023-10-09T17:29:15;2.95;;;1.00;;
56413;SDS011;42318;48.452;19.526;2023-10-09T17:32:17;2.92;;;1.42;;
56413;SDS011;42318;48.452;19.526;2023-10-09T17:35:18;2.25;;;1.27;;
56413;SDS011;42318;48.452;19.526;2023-10-09T17:38:18;2.05;;;1.05;;
56413;SDS011;42318;48.452;19.526;2023-10-09T17:41:20;3.05;;;1.20;;
56413;SDS011;42318;48.452;19.526;2023-10-09T17:44:21;1.90;;;1.17;;
56413;SDS011;42318;48.452;19.526;2023-10-09T17:47:22;2.08;;;1.38;;
56413;SDS011;42318;48.452;19.526;2023-10-09T17:50:23;2.47;;;1.50;;
56413;SDS011;42318;48.452;19.526;2023-10-09T17:53:23;2.92;;;1.40;;
56413;SDS011;42318;48.452;19.526;2023-10-09T17:56:24;2.08;;;1.05;;
56413;SDS011;42318;48.452;19.526;2023-10-09T17:59:26;2.65;;;1.27;;
56413;SDS011;42318;48.452;19.526;2023-10-09T18:02:29;2.60;;;1.35;;
56413;SDS011;42318;48.452;19.526;2023-10-09T18:05:31;3.92;;;2.08;;
56413;SDS011;42318;48.452;19.526;2023-10-09T18:08:33;2.35;;;1.20;;
56413;SDS011;42318;48.452;19.526;2023-10-09T18:11:36;5.55;;;1.50;;
56413;SDS011;42318;48.452;19.526;2023-10-09T18:14:37;3.05;;;1.60;;
56413;SDS011;42318;48.452;19.526;2023-10-09T18:17:39;6.43;;;1.30;;
56413;SDS011;42318;48.452;19.526;2023-10-09T18:20:41;4.35;;;2.10;;
56413;SDS011;42318;48.452;19.526;2023-10-09T18:23:42;4.05;;;1.40;;
56413;SDS011;42318;48.452;19.526;2023-10-09T18:26:47;2.50;;;1.50;;
56413;SDS011;42318;48.452;19.526;2023-10-09T18:29:48;3.05;;;1.48;;
56413;SDS011;42318;48.452;19.526;2023-10-09T18:32:49;1.48;;;1.10;;
56413;SDS011;42318;48.452;19.526;2023-10-09T18:35:50;2.95;;;1.50;;
56413;SDS011;42318;48.452;19.526;2023-10-09T18:38:51;2.90;;;1.40;;
56413;SDS011;42318;48.452;19.526;2023-10-09T18:41:52;2.03;;;1.27;;